Time;durP1;ratioP1;P1;durP2;ratioP2;P2;SDS_P1;SDS_P2;PMS_P1;PMS_P2;Temp;Humidity;BMP_temperature;BMP_pressure;BME280_temperature;BME280_humidity;BME280_pressure;Samples;Min_cycle;Max_cycle;Signal;HPM_P1;HPM_P2
2022/12/12 00:00:57;;;;;;;38.20;23.10;;;;;;;-3.25;100.00;97744.45;105943;1283;59743;-80
2022/12/12 00:03:26;;;;;;;38.30;21.10;;;;;;;-3.25;100.00;97744.62;105942;1290;59754;-80
2022/12/12 00:05:53;;;;;;;38.60;22.90;;;;;;;-3.24;100.00;97740.08;105826;1286;59803;-81
2022/12/12 00:08:20;;;;;;;37.60;21.80;;;;;;;-3.24;100.00;97741.98;105933;1291;59998;-80
2022/12/12 00:10:46;;;;;;;39.80;23.50;;;;;;;-3.24;100.00;97746.16;105211;1290;1002291;-80
2022/12/12 00:13:12;;;;;;;39.10;22.30;;;;;;;-3.24;100.00;97746.31;105681;1291;60108;-80
2022/12/12 00:15:38;;;;;;;36.70;21.20;;;;;;;-3.24;100.00;97745.44;105945;1274;59837;-80
2022/12/12 00:18:04;;;;;;;42.50;25.30;;;;;;;-3.23;100.00;97746.29;105722;1295;61089;-81
2022/12/12 00:20:31;;;;;;;38.60;23.10;;;;;;;-3.23;100.00;97747.00;105956;1283;59784;-80
2022/12/12 00:22:57;;;;;;;40.00;22.50;;;;;;;-3.24;100.00;97745.98;105939;1283;59798;-80
2022/12/12 00:25:22;;;;;;;44.30;24.20;;;;;;;-3.26;100.00;97740.14;105933;1283;59851;-81
2022/12/12 00:27:50;;;;;;;38.00;22.20;;;;;;;-3.26;100.00;97743.80;105967;1284;59678;-80
2022/12/12 00:30:16;;;;;;;37.80;21.70;;;;;;;-3.27;100.00;97745.92;105952;1290;59761;-80
2022/12/12 00:32:42;;;;;;;37.30;22.70;;;;;;;-3.29;100.00;97745.09;105947;1290;60233;-81
2022/12/12 00:35:08;;;;;;;40.10;22.30;;;;;;;-3.31;100.00;97743.92;105918;1291;59894;-80
2022/12/12 00:37:36;;;;;;;35.00;20.60;;;;;;;-3.31;100.00;97747.23;106002;1283;59703;-81
2022/12/12 00:40:02;;;;;;;38.10;22.20;;;;;;;-3.32;100.00;97747.09;105949;1290;67986;-81
2022/12/12 00:42:28;;;;;;;38.30;21.80;;;;;;;-3.31;100.00;97748.44;105969;1289;67628;-80
2022/12/12 00:44:55;;;;;;;39.60;22.30;;;;;;;-3.30;100.00;97745.30;105931;1282;60079;-81
2022/12/12 00:47:21;;;;;;;41.00;21.60;;;;;;;-3.30;100.00;97742.35;105934;1291;59623;-81
2022/12/12 00:49:47;;;;;;;37.80;21.10;;;;;;;-3.31;100.00;97738.90;105976;1283;59635;-81
2022/12/12 00:52:13;;;;;;;35.70;20.90;;;;;;;-3.32;100.00;97739.97;105946;1290;59822;-80
2022/12/12 00:54:39;;;;;;;38.70;22.40;;;;;;;-3.31;100.00;97741.00;105964;1283;59892;-81
2022/12/12 00:57:06;;;;;;;40.90;23.20;;;;;;;-3.31;100.00;97742.21;105991;1283;59735;-81
2022/12/12 00:59:32;;;;;;;40.20;22.00;;;;;;;-3.31;100.00;97742.03;105948;1290;59600;-80
2022/12/12 01:01:58;;;;;;;41.80;23.40;;;;;;;-3.31;100.00;97740.12;105973;1283;59932;-80
2022/12/12 01:04:24;;;;;;;37.70;21.70;;;;;;;-3.31;100.00;97739.42;105662;1289;60224;-81
2022/12/12 01:06:50;;;;;;;38.30;21.70;;;;;;;-3.32;100.00;97735.45;105966;1291;60058;-81
2022/12/12 01:09:16;;;;;;;32.80;18.90;;;;;;;-3.32;100.00;97738.06;105953;1290;59645;-81
2022/12/12 01:11:42;;;;;;;32.20;17.80;;;;;;;-3.32;100.00;97739.09;105051;1290;1002279;-80
2022/12/12 01:14:08;;;;;;;38.70;19.40;;;;;;;-3.34;100.00;97737.94;105953;1283;68022;-80
2022/12/12 01:16:34;;;;;;;34.50;18.40;;;;;;;-3.33;100.00;97741.41;105782;1290;59756;-80
2022/12/12 01:19:00;;;;;;;31.00;18.00;;;;;;;-3.36;100.00;97738.02;105927;1283;59659;-80
2022/12/12 01:21:27;;;;;;;35.70;18.80;;;;;;;-3.37;100.00;97736.83;105811;1290;59657;-80
2022/12/12 01:23:53;;;;;;;33.70;19.20;;;;;;;-3.38;100.00;97737.54;105980;1290;59584;-80
2022/12/12 01:26:22;;;;;;;32.50;18.50;;;;;;;-3.38;100.00;97739.46;105940;1290;60067;-80
2022/12/12 01:28:50;;;;;;;30.40;17.90;;;;;;;-3.39;100.00;97736.71;105977;1283;59920;-80
2022/12/12 01:31:16;;;;;;;30.30;16.70;;;;;;;-3.39;100.00;97738.98;105924;1296;65161;-80
2022/12/12 01:33:46;;;;;;;29.20;18.70;;;;;;;-3.40;100.00;97734.67;105929;1291;59696;-81
2022/12/12 01:36:18;;;;;;;30.60;18.10;;;;;;;-3.41;100.00;97734.19;105937;1291;61203;-80
2022/12/12 01:38:49;;;;;;;30.90;17.80;;;;;;;-3.41;100.00;97731.23;105724;1293;67841;-80
2022/12/12 01:41:17;;;;;;;33.40;17.20;;;;;;;-3.42;100.00;97728.98;105956;1291;60981;-81
2022/12/12 01:43:43;;;;;;;29.50;18.30;;;;;;;-3.44;100.00;97727.14;105792;1290;64826;-80
2022/12/12 01:46:21;;;;;;;29.70;17.90;;;;;;;-3.45;100.00;97729.28;105948;1290;59838;-81
2022/12/12 01:48:54;;;;;;;29.90;17.60;;;;;;;-3.49;100.00;97725.73;105929;1290;59578;-80
2022/12/12 01:51:24;;;;;;;29.40;17.50;;;;;;;-3.50;100.00;97722.48;105969;1290;76732;-81
2022/12/12 01:53:53;;;;;;;27.80;16.60;;;;;;;-3.51;100.00;97723.36;105205;1290;1002350;-79
2022/12/12 01:56:20;;;;;;;27.40;16.10;;;;;;;-3.52;100.00;97723.77;105935;1283;64127;-80
2022/12/12 01:58:50;;;;;;;24.40;16.10;;;;;;;-3.53;100.00;97723.79;105923;1291;59837;-79
2022/12/12 02:01:16;;;;;;;30.30;18.10;;;;;;;-3.54;100.00;97725.20;105967;1290;59858;-80
2022/12/12 02:03:44;;;;;;;31.60;16.90;;;;;;;-3.56;100.00;97725.08;105936;1283;65355;-80
2022/12/12 02:06:17;;;;;;;25.40;15.10;;;;;;;-3.55;100.00;97724.89;105977;1290;59729;-80
2022/12/12 02:08:45;;;;;;;26.30;15.00;;;;;;;-3.56;100.00;97725.44;105943;1290;64971;-80
2022/12/12 02:11:12;;;;;;;26.70;15.50;;;;;;;-3.57;100.00;97720.42;105802;1291;59710;-80
2022/12/12 02:13:38;;;;;;;26.50;15.30;;;;;;;-3.57;100.00;97723.02;105224;1290;1002399;-80
2022/12/12 02:16:16;;;;;;;25.40;16.20;;;;;;;-3.58;100.00;97726.02;105952;1290;59749;-79
2022/12/12 02:19:13;;;;;;;26.30;15.40;;;;;;;-3.58;100.00;97721.16;105983;1277;59880;-80
2022/12/12 02:21:50;;;;;;;25.80;15.40;;;;;;;-3.57;100.00;97722.52;105946;1289;62825;-80
2022/12/12 02:24:26;;;;;;;26.00;15.60;;;;;;;-3.56;100.00;97720.58;105945;1283;59694;-80
2022/12/12 02:27:02;;;;;;;24.60;14.10;;;;;;;-3.58;100.00;97718.89;105699;1292;60002;-80
2022/12/12 02:29:40;;;;;;;22.90;14.80;;;;;;;-3.58;100.00;97717.88;105942;1289;68285;-80
2022/12/12 02:32:38;;;;;;;21.80;14.40;;;;;;;-3.59;100.00;97717.89;105948;1291;68301;-80
2022/12/12 02:35:17;;;;;;;22.50;13.70;;;;;;;-3.59;100.00;97715.48;105954;1283;62995;-80
2022/12/12 02:38:21;;;;;;;24.60;14.90;;;;;;;-3.61;100.00;97715.69;105872;1291;59686;-80
2022/12/12 02:41:03;;;;;;;23.70;14.70;;;;;;;-3.60;100.00;97719.14;105305;1306;59965;-80
2022/12/12 02:43:37;;;;;;;25.00;14.50;;;;;;;-3.59;100.00;97722.76;105310;1298;65333;-80
2022/12/12 02:46:13;;;;;;;22.20;13.20;;;;;;;-3.60;100.00;97720.19;105273;1299;61217;-81
2022/12/12 02:48:48;;;;;;;22.50;13.90;;;;;;;-3.59;100.00;97718.23;105317;1300;64144;-80
2022/12/12 02:51:16;;;;;;;21.80;13.60;;;;;;;-3.58;100.00;97717.52;105282;1305;59838;-80
2022/12/12 02:53:42;;;;;;;21.00;12.60;;;;;;;-3.57;100.00;97714.55;105379;1292;59702;-79
2022/12/12 02:56:47;;;;;;;21.20;13.50;;;;;;;-3.58;100.00;97713.34;105317;1299;59929;-80
2022/12/12 02:59:19;;;;;;;20.40;13.60;;;;;;;-3.59;100.00;97714.77;105342;1298;60293;-80
2022/12/12 03:02:16;;;;;;;18.90;12.40;;;;;;;-3.60;100.00;97713.40;105308;1306;65420;-79
2022/12/12 03:08:16;;;;;;;17.80;11.90;;;;;;;-3.61;100.00;97714.65;104841;1298;59777;-80
2022/12/12 03:11:03;;;;;;;19.80;12.00;;;;;;;-3.60;100.00;97717.06;104641;1291;66754;-80
2022/12/12 03:13:41;;;;;;;18.80;12.90;;;;;;;-3.59;100.00;97717.90;104820;1304;60182;-80
2022/12/12 03:16:27;;;;;;;19.00;12.00;;;;;;;-3.59;100.00;97718.25;104865;1302;63866;-80
2022/12/12 03:19:09;;;;;;;24.30;14.20;;;;;;;-3.59;100.00;97723.11;105214;1299;59919;-81
2022/12/12 03:21:57;;;;;;;20.40;12.90;;;;;;;-3.60;100.00;97716.36;105308;1300;61493;-81
2022/12/12 03:24:57;;;;;;;19.00;12.50;;;;;;;-3.60;100.00;97717.74;105396;1297;67851;-81
2022/12/12 03:28:02;;;;;;;19.70;11.80;;;;;;;-3.60;100.00;97714.45;105319;1295;67584;-81
2022/12/12 03:30:34;;;;;;;22.30;11.80;;;;;;;-3.60;100.00;97713.77;104804;1305;72778;-81
2022/12/12 03:33:10;;;;;;;18.60;10.90;;;;;;;-3.60;100.00;97715.16;104785;1298;60152;-81
2022/12/12 03:35:45;;;;;;;17.60;10.40;;;;;;;-3.61;100.00;97716.38;104834;1305;59653;-81
2022/12/12 03:38:30;;;;;;;22.10;13.10;;;;;;;-3.61;100.00;97720.89;104803;1306;75778;-78
2022/12/12 03:41:04;;;;;;;24.40;14.00;;;;;;;-3.61;100.00;97717.25;104796;1306;59888;-81
2022/12/12 03:43:38;;;;;;;20.30;12.90;;;;;;;-3.60;100.00;97719.14;104793;1303;73874;-81
2022/12/12 03:46:26;;;;;;;24.80;15.40;;;;;;;-3.59;100.00;97719.44;105209;1298;61215;-81
2022/12/12 03:48:59;;;;;;;23.40;13.00;;;;;;;-3.58;100.00;97715.08;105299;1298;59681;-80
2022/12/12 03:51:28;;;;;;;25.30;15.80;;;;;;;-3.58;100.00;97711.60;105295;1299;76874;-80
2022/12/12 03:54:10;;;;;;;26.20;15.40;;;;;;;-3.58;100.00;97712.14;105279;1292;59873;-80
2022/12/12 03:57:18;;;;;;;25.00;15.90;;;;;;;-3.57;100.00;97711.95;105023;1300;74007;-80
2022/12/12 03:59:52;;;;;;;23.90;14.50;;;;;;;-3.57;100.00;97712.81;104984;1301;59905;-80
2022/12/12 04:02:24;;;;;;;25.10;14.50;;;;;;;-3.58;100.00;97711.27;104275;1302;1002431;-80
2022/12/12 04:05:36;;;;;;;23.70;13.60;;;;;;;-3.58;100.00;97711.61;104996;1298;67120;-79
2022/12/12 04:08:07;;;;;;;23.20;14.70;;;;;;;-3.59;100.00;97707.81;104592;1301;68722;-80
2022/12/12 04:13:46;;;;;;;21.80;14.40;;;;;;;-3.58;100.00;97707.27;104838;1303;60237;-80
2022/12/12 04:16:21;;;;;;;19.20;13.40;;;;;;;-3.57;100.00;97704.83;104868;1297;59806;-81
2022/12/12 04:18:53;;;;;;;23.70;16.00;;;;;;;-3.58;100.00;97702.58;104848;1304;67972;-80
2022/12/12 04:24:41;;;;;;;21.50;14.50;;;;;;;-3.57;100.00;97703.27;103664;1316;1002458;-81
2022/12/12 04:27:29;;;;;;;24.10;14.70;;;;;;;-3.57;100.00;97704.29;104367;1309;59807;-80
2022/12/12 04:30:03;;;;;;;24.20;16.50;;;;;;;-3.56;100.00;97702.17;104402;1309;60197;-80
2022/12/12 04:32:38;;;;;;;23.10;15.10;;;;;;;-3.55;100.00;97702.16;104435;1307;75295;-81
2022/12/12 04:35:22;;;;;;;24.20;16.40;;;;;;;-3.55;100.00;97704.56;104380;1301;69011;-81
2022/12/12 04:37:53;;;;;;;24.80;15.70;;;;;;;-3.55;100.00;97706.84;104837;1297;65193;-81
2022/12/12 04:40:27;;;;;;;26.40;16.10;;;;;;;-3.55;100.00;97709.42;104133;1303;1002433;-81
2022/12/12 04:43:09;;;;;;;25.10;14.80;;;;;;;-3.51;100.00;97710.36;104966;1302;59736;-80
2022/12/12 04:45:41;;;;;;;21.20;14.80;;;;;;;-3.50;100.00;97711.73;105226;1298;77224;-81
2022/12/12 04:48:12;;;;;;;24.70;15.10;;;;;;;-3.50;100.00;97711.56;105227;1298;60131;-81
2022/12/12 04:50:40;;;;;;;26.20;16.30;;;;;;;-3.50;100.00;97709.64;105169;1302;64177;-80
2022/12/12 04:53:10;;;;;;;24.00;14.50;;;;;;;-3.51;100.00;97707.58;105228;1299;59760;-80
2022/12/12 04:55:51;;;;;;;21.30;14.40;;;;;;;-3.50;100.00;97707.39;105287;1298;59893;-81
2022/12/12 04:58:17;;;;;;;22.90;14.70;;;;;;;-3.50;100.00;97711.20;105238;1298;76765;-80
2022/12/12 05:01:02;;;;;;;23.80;14.40;;;;;;;-3.50;100.00;97710.51;105327;1289;59742;-81
2022/12/12 05:03:38;;;;;;;21.90;13.90;;;;;;;-3.50;100.00;97708.25;105897;1290;65574;-80
2022/12/12 05:06:09;;;;;;;20.50;13.50;;;;;;;-3.51;100.00;97710.00;105926;1290;59669;-81
2022/12/12 05:08:40;;;;;;;22.70;13.90;;;;;;;-3.52;100.00;97710.57;105763;1290;59668;-80
2022/12/12 05:11:06;;;;;;;20.60;13.40;;;;;;;-3.53;100.00;97710.25;105974;1290;66517;-81
2022/12/12 05:13:35;;;;;;;20.90;14.50;;;;;;;-3.53;100.00;97707.64;105964;1289;60135;-81
2022/12/12 05:16:16;;;;;;;23.60;14.40;;;;;;;-3.54;100.00;97705.21;105925;1291;65247;-81
2022/12/12 05:18:42;;;;;;;22.70;14.60;;;;;;;-3.52;100.00;97708.31;105188;1291;1002394;-80
2022/12/12 05:21:10;;;;;;;23.20;15.10;;;;;;;-3.52;100.00;97703.78;105925;1290;59858;-79
2022/12/12 05:23:36;;;;;;;24.20;15.20;;;;;;;-3.51;100.00;97707.93;105945;1287;76736;-81
2022/12/12 05:26:27;;;;;;;26.90;16.60;;;;;;;-3.50;100.00;97712.08;105951;1290;59913;-80
2022/12/12 05:28:53;;;;;;;27.10;16.40;;;;;;;-3.51;100.00;97708.11;105272;1298;65072;-81
2022/12/12 05:31:19;;;;;;;26.00;16.60;;;;;;;-3.50;100.00;97710.17;105283;1291;59966;-81
2022/12/12 05:33:45;;;;;;;27.00;17.00;;;;;;;-3.50;100.00;97710.14;105381;1290;59752;-80
2022/12/12 05:36:13;;;;;;;25.20;16.50;;;;;;;-3.50;100.00;97706.16;104549;1299;1002209;-79
2022/12/12 05:38:40;;;;;;;26.90;17.30;;;;;;;-3.50;100.00;97711.02;105315;1299;61169;-79
2022/12/12 05:41:06;;;;;;;32.70;19.20;;;;;;;-3.48;100.00;97712.54;105271;1290;65235;-82
2022/12/12 05:43:34;;;;;;;32.40;18.70;;;;;;;-3.48;100.00;97715.29;105319;1300;59861;-80
2022/12/12 05:45:59;;;;;;;29.90;18.40;;;;;;;-3.47;100.00;97717.88;105320;1291;59702;-81
2022/12/12 05:48:26;;;;;;;32.10;19.00;;;;;;;-3.46;100.00;97719.23;105334;1291;59929;-81
2022/12/12 05:50:53;;;;;;;33.60;21.20;;;;;;;-3.45;100.00;97719.38;105297;1298;59852;-81
2022/12/12 05:53:19;;;;;;;35.50;21.50;;;;;;;-3.45;100.00;97717.12;105296;1296;59995;-81
2022/12/12 05:55:44;;;;;;;33.10;20.20;;;;;;;-3.44;100.00;97718.30;105302;1296;59824;-81
2022/12/12 05:58:11;;;;;;;30.60;19.40;;;;;;;-3.43;100.00;97722.79;105313;1286;59820;-81
2022/12/12 06:00:37;;;;;;;33.30;19.10;;;;;;;-3.40;100.00;97721.98;105300;1298;59997;-81
2022/12/12 06:03:03;;;;;;;40.20;23.20;;;;;;;-3.39;100.00;97723.86;105316;1289;59815;-79
2022/12/12 06:05:29;;;;;;;34.80;20.80;;;;;;;-3.37;100.00;97725.03;105422;1290;60373;-80
2022/12/12 06:07:55;;;;;;;36.10;21.50;;;;;;;-3.36;100.00;97725.16;105946;1283;59909;-81
2022/12/12 06:10:21;;;;;;;35.40;21.70;;;;;;;-3.37;100.00;97723.63;105980;1291;59742;-80
2022/12/12 06:12:48;;;;;;;33.20;19.60;;;;;;;-3.36;100.00;97727.08;105915;1290;61445;-80
2022/12/12 06:15:14;;;;;;;35.30;20.80;;;;;;;-3.35;100.00;97732.26;106043;1283;59715;-80
2022/12/12 06:17:40;;;;;;;38.00;23.40;;;;;;;-3.35;100.00;97730.34;105976;1290;60212;-80
2022/12/12 06:20:06;;;;;;;35.30;21.30;;;;;;;-3.36;100.00;97726.89;105967;1283;59842;-79
2022/12/12 06:22:34;;;;;;;37.60;22.60;;;;;;;-3.35;100.00;97727.73;105690;1293;59960;-80
2022/12/12 06:25:01;;;;;;;36.70;22.50;;;;;;;-3.35;100.00;97729.48;105932;1283;60291;-81
2022/12/12 06:27:28;;;;;;;35.50;21.20;;;;;;;-3.37;100.00;97733.00;105928;1283;63825;-80
2022/12/12 06:29:54;;;;;;;35.00;22.00;;;;;;;-3.37;100.00;97739.27;105657;1289;59818;-81
2022/12/12 06:32:20;;;;;;;33.20;21.20;;;;;;;-3.37;100.00;97741.87;105928;1283;59619;-81
2022/12/12 06:34:47;;;;;;;39.60;24.60;;;;;;;-3.37;100.00;97742.22;105960;1290;59797;-81
2022/12/12 06:37:13;;;;;;;37.60;22.00;;;;;;;-3.36;100.00;97747.05;105921;1283;59789;-80
2022/12/12 06:39:39;;;;;;;34.30;21.20;;;;;;;-3.35;100.00;97747.52;105962;1289;59934;-80
2022/12/12 06:42:07;;;;;;;34.90;21.30;;;;;;;-3.35;100.00;97744.73;105765;1293;59875;-81
2022/12/12 06:44:34;;;;;;;38.30;21.70;;;;;;;-3.34;100.00;97748.02;105674;1288;59888;-78
2022/12/12 06:47:00;;;;;;;34.70;20.10;;;;;;;-3.32;100.00;97749.88;105972;1290;59814;-80
2022/12/12 06:49:26;;;;;;;37.00;22.00;;;;;;;-3.31;100.00;97746.69;105953;1284;59850;-80
2022/12/12 06:51:52;;;;;;;36.60;21.10;;;;;;;-3.29;100.00;97745.44;105917;1291;59645;-78
2022/12/12 06:54:18;;;;;;;34.80;21.60;;;;;;;-3.27;100.00;97749.39;105907;1286;59795;-84
2022/12/12 06:56:44;;;;;;;30.90;20.80;;;;;;;-3.26;100.00;97754.20;105882;1283;59801;-80
2022/12/12 06:59:12;;;;;;;30.50;21.90;;;;;;;-3.25;100.00;97756.09;105717;1291;60137;-79
2022/12/12 07:01:38;;;;;;;40.20;22.90;;;;;;;-3.24;100.00;97757.42;105945;1291;60108;-79
2022/12/12 07:04:04;;;;;;;38.00;23.10;;;;;;;-3.23;100.00;97757.40;106082;1290;59735;-79
2022/12/12 07:06:30;;;;;;;40.40;25.40;;;;;;;-3.21;100.00;97761.00;105013;1290;1002409;-77
2022/12/12 07:08:58;;;;;;;42.40;24.00;;;;;;;-3.20;100.00;97762.35;105602;1295;59807;-78
2022/12/12 07:11:25;;;;;;;43.70;26.40;;;;;;;-3.18;100.00;97764.02;105700;1295;60133;-77
2022/12/12 07:13:55;;;;;;;49.20;28.10;;;;;;;-3.17;100.00;97769.02;105949;1290;61154;-77
2022/12/12 07:16:21;;;;;;;43.80;26.20;;;;;;;-3.16;100.00;97772.13;105921;1290;65144;-77
2022/12/12 07:18:47;;;;;;;43.00;25.80;;;;;;;-3.16;100.00;97774.02;105188;1291;1002909;-77
2022/12/12 07:21:16;;;;;;;41.10;25.70;;;;;;;-3.14;100.00;97774.83;105717;1293;60151;-78
2022/12/12 07:23:45;;;;;;;60.30;31.60;;;;;;;-3.12;100.00;97776.34;105936;1290;68232;-77
2022/12/12 07:26:14;;;;;;;54.60;30.80;;;;;;;-3.09;100.00;97774.51;105939;1290;70268;-78
2022/12/12 07:28:40;;;;;;;44.70;25.60;;;;;;;-3.08;100.00;97773.96;105919;1289;62996;-77
2022/12/12 07:31:12;;;;;;;42.90;27.20;;;;;;;-3.07;100.00;97774.95;105925;1291;59702;-78
2022/12/12 07:33:40;;;;;;;38.20;23.80;;;;;;;-3.04;100.00;97777.64;105956;1290;59649;-80
2022/12/12 07:36:07;;;;;;;40.40;25.80;;;;;;;-3.02;100.00;97779.67;105942;1283;75556;-78
2022/12/12 07:38:35;;;;;;;39.90;23.90;;;;;;;-3.00;100.00;97780.32;105927;1290;69668;-80
2022/12/12 07:41:04;;;;;;;43.50;28.60;;;;;;;-2.98;100.00;97775.73;105946;1291;62743;-78
2022/12/12 07:43:30;;;;;;;37.60;22.90;;;;;;;-2.96;100.00;97776.69;105015;1294;1002458;-78
2022/12/12 07:45:56;;;;;;;47.70;28.30;;;;;;;-2.93;100.00;97775.73;105952;1288;59716;-78
2022/12/12 07:48:21;;;;;;;49.80;30.00;;;;;;;-2.91;100.00;97776.88;105944;1285;59692;-78
2022/12/12 07:50:49;;;;;;;48.70;28.40;;;;;;;-2.85;100.00;97780.18;105877;1284;59901;-78
2022/12/12 07:53:15;;;;;;;41.90;26.50;;;;;;;-2.81;100.00;97778.48;105927;1285;59795;-78
2022/12/12 07:55:40;;;;;;;42.50;26.80;;;;;;;-2.78;100.00;97776.83;105938;1290;59913;-78
2022/12/12 07:58:06;;;;;;;40.10;25.50;;;;;;;-2.74;100.00;97777.36;105949;1283;59689;-78
2022/12/12 08:00:32;;;;;;;38.40;25.00;;;;;;;-2.72;100.00;97776.42;105947;1284;60344;-78
2022/12/12 08:02:58;;;;;;;40.30;26.40;;;;;;;-2.71;100.00;97777.27;105953;1290;59702;-77
2022/12/12 08:05:24;;;;;;;34.70;22.20;;;;;;;-2.68;100.00;97777.34;105977;1291;59648;-77
2022/12/12 08:07:50;;;;;;;37.00;22.90;;;;;;;-2.64;100.00;97778.61;105960;1289;59576;-78
2022/12/12 08:10:16;;;;;;;33.90;22.80;;;;;;;-2.60;100.00;97780.02;105944;1291;59774;-78
2022/12/12 08:12:43;;;;;;;36.70;24.20;;;;;;;-2.55;100.00;97780.21;105947;1290;60883;-78
2022/12/12 08:15:15;;;;;;;33.90;22.70;;;;;;;-2.51;100.00;97784.95;105921;1290;59844;-78
2022/12/12 08:17:42;;;;;;;32.40;23.10;;;;;;;-2.48;100.00;97783.63;105941;1289;59729;-78
2022/12/12 08:20:10;;;;;;;33.00;21.70;;;;;;;-2.43;100.00;97782.24;105940;1291;59720;-77
2022/12/12 08:22:36;;;;;;;34.10;21.90;;;;;;;-2.39;100.00;97782.61;105934;1292;68069;-77
2022/12/12 08:25:02;;;;;;;39.20;25.60;;;;;;;-2.35;100.00;97786.66;105937;1289;59767;-77
2022/12/12 08:27:30;;;;;;;35.30;24.10;;;;;;;-2.31;100.00;97787.21;105690;1288;72742;-78
2022/12/12 08:29:56;;;;;;;32.30;21.40;;;;;;;-2.26;100.00;97788.59;105894;1283;59828;-77
2022/12/12 08:32:22;;;;;;;34.10;22.40;;;;;;;-2.21;100.00;97787.02;105954;1287;59772;-77
2022/12/12 08:34:48;;;;;;;33.80;23.00;;;;;;;-2.12;100.00;97785.87;105946;1290;59810;-77
2022/12/12 08:37:14;;;;;;;36.30;24.60;;;;;;;-2.05;100.00;97780.55;105925;1291;60216;-78
2022/12/12 08:39:40;;;;;;;34.10;23.00;;;;;;;-1.95;100.00;97781.59;105941;1291;59651;-79
2022/12/12 08:42:06;;;;;;;35.90;25.20;;;;;;;-1.90;100.00;97783.66;105953;1290;59743;-76
2022/12/12 08:44:32;;;;;;;36.30;23.80;;;;;;;-1.84;100.00;97784.86;105971;1284;59952;-77
2022/12/12 08:46:58;;;;;;;34.70;23.60;;;;;;;-1.80;100.00;97785.89;105949;1287;59714;-77
2022/12/12 08:49:24;;;;;;;33.20;23.00;;;;;;;-1.73;100.00;97791.59;105997;1292;59829;-76
2022/12/12 08:51:50;;;;;;;32.10;22.90;;;;;;;-1.65;100.00;97793.21;105969;1288;60164;-79
2022/12/12 08:54:17;;;;;;;31.80;21.80;;;;;;;-1.58;100.00;97792.09;105736;1293;59825;-77
2022/12/12 08:56:43;;;;;;;31.30;22.80;;;;;;;-1.53;100.00;97789.79;105950;1288;59801;-78
2022/12/12 08:59:09;;;;;;;32.20;23.50;;;;;;;-1.47;100.00;97791.31;105951;1290;59729;-78
2022/12/12 09:01:35;;;;;;;32.30;23.80;;;;;;;-1.41;100.00;97787.77;105917;1291;59975;-76
2022/12/12 09:04:01;;;;;;;33.10;24.00;;;;;;;-1.33;100.00;97789.41;105990;1288;60055;-78
2022/12/12 09:06:27;;;;;;;28.50;22.00;;;;;;;-1.24;100.00;97787.45;106059;1292;59759;-76
2022/12/12 09:08:55;;;;;;;32.80;23.80;;;;;;;-1.17;100.00;97783.17;105814;1294;59891;-78
2022/12/12 09:11:21;;;;;;;33.70;22.90;;;;;;;-1.11;100.00;97784.50;106120;1282;59846;-79
2022/12/12 09:13:47;;;;;;;32.70;21.40;;;;;;;-1.06;100.00;97790.23;106081;1287;60093;-78
2022/12/12 09:16:13;;;;;;;33.90;23.80;;;;;;;-1.03;100.00;97793.45;106071;1292;59860;-78
2022/12/12 09:18:40;;;;;;;32.60;23.80;;;;;;;-1.01;100.00;97791.09;106125;1288;60067;-77
2022/12/12 09:21:07;;;;;;;31.50;23.50;;;;;;;-1.01;100.00;97795.09;106102;1288;59823;-79
2022/12/12 09:23:33;;;;;;;32.00;21.60;;;;;;;-1.00;100.00;97792.27;106070;1287;59707;-77
2022/12/12 09:26:07;;;;;;;30.20;21.80;;;;;;;-0.95;100.00;97793.99;106068;1282;60537;-78
2022/12/12 09:28:33;;;;;;;29.60;22.80;;;;;;;-0.90;100.00;97793.27;106072;1281;59711;-78
2022/12/12 09:31:02;;;;;;;32.90;22.00;;;;;;;-0.87;100.00;97789.48;105708;1294;59592;-78
2022/12/12 09:33:28;;;;;;;29.80;22.00;;;;;;;-0.88;100.00;97790.20;106075;1288;67876;-79
2022/12/12 09:36:02;;;;;;;30.50;21.40;;;;;;;-0.87;100.00;97792.63;106076;1288;59766;-78
2022/12/12 09:38:29;;;;;;;29.50;21.40;;;;;;;-0.85;100.00;97789.39;106045;1289;73450;-78
2022/12/12 09:41:08;;;;;;;34.40;22.80;;;;;;;-0.85;100.00;97785.56;106066;1295;60190;-78
2022/12/12 09:44:06;;;;;;;29.20;22.10;;;;;;;-0.84;100.00;97785.54;106085;1289;59688;-78
2022/12/12 09:46:50;;;;;;;29.60;20.10;;;;;;;-0.87;100.00;97785.46;105989;1292;66935;-79
2022/12/12 09:49:50;;;;;;;25.40;19.20;;;;;;;-0.89;100.00;97786.27;106107;1287;59748;-79
2022/12/12 09:52:23;;;;;;;29.00;21.00;;;;;;;-0.90;100.00;97784.20;105462;1290;65296;-78
2022/12/12 09:54:49;;;;;;;30.60;21.30;;;;;;;-0.85;100.00;97784.71;105450;1298;59800;-78
2022/12/12 09:57:39;;;;;;;30.00;20.90;;;;;;;-0.85;100.00;97785.41;105439;1297;59997;-78
2022/12/12 10:00:09;;;;;;;28.20;21.10;;;;;;;-0.92;100.00;97788.63;105444;1296;76389;-78
2022/12/12 10:02:59;;;;;;;28.60;20.80;;;;;;;-0.94;100.00;97788.88;105279;1298;61386;-77
2022/12/12 10:05:52;;;;;;;28.30;20.70;;;;;;;-0.90;100.00;97793.44;105189;1310;65099;-78
2022/12/12 10:08:40;;;;;;;26.30;19.70;;;;;;;-0.86;100.00;97792.05;105449;1299;59912;-78
2022/12/12 10:13:59;;;;;;;;;;;;;;;-0.77;100.00;97790.16;105478;1298;67829;-78
2022/12/12 10:16:27;;;;;;;28.50;19.20;;;;;;;-0.78;100.00;97796.27;105457;1298;70015;-79
2022/12/12 10:19:03;;;;;;;28.70;21.70;;;;;;;-0.76;100.00;97795.15;105459;1302;65450;-78
2022/12/12 10:21:31;;;;;;;27.50;20.10;;;;;;;-0.70;100.00;97791.91;105448;1305;59756;-78
2022/12/12 10:24:04;;;;;;;27.00;21.00;;;;;;;-0.63;100.00;97790.95;105460;1298;60606;-79
2022/12/12 10:26:30;;;;;;;26.70;20.90;;;;;;;-0.61;100.00;97791.41;105473;1305;65368;-77
2022/12/12 10:29:01;;;;;;;26.50;20.80;;;;;;;-0.62;100.00;97788.13;105895;1292;61178;-77
2022/12/12 10:32:07;;;;;;;30.60;21.30;;;;;;;-0.62;100.00;97787.08;105901;1289;64314;-78
2022/12/12 10:34:48;;;;;;;25.50;19.10;;;;;;;-0.58;100.00;97785.15;106052;1288;59879;-78
2022/12/12 10:37:32;;;;;;;24.70;18.70;;;;;;;-0.54;100.00;97789.89;106084;1287;61858;-78
2022/12/12 10:40:16;;;;;;;25.80;19.90;;;;;;;-0.51;100.00;97785.07;106168;1288;66664;-78
2022/12/12 10:42:54;;;;;;;26.90;19.20;;;;;;;-0.52;100.00;97782.29;105900;1284;59762;-78
2022/12/12 10:45:53;;;;;;;28.00;20.50;;;;;;;-0.52;100.00;97788.04;105899;1291;64564;-77
2022/12/12 10:48:19;;;;;;;26.80;18.50;;;;;;;-0.43;100.00;97789.44;105928;1287;186720;-79
2022/12/12 10:50:51;;;;;;;25.00;18.80;;;;;;;-0.37;100.00;97784.63;106115;1288;60139;-79
2022/12/12 10:53:18;;;;;;;28.30;20.00;;;;;;;-0.36;100.00;97787.38;106158;1295;67939;-78
2022/12/12 10:55:55;;;;;;;28.80;20.30;;;;;;;-0.38;100.00;97788.89;106078;1291;68703;-77
2022/12/12 10:58:26;;;;;;;26.60;18.10;;;;;;;-0.40;100.00;97784.92;106081;1289;65276;-79
2022/12/12 11:01:01;;;;;;;27.20;19.90;;;;;;;-0.42;100.00;97783.80;106069;1288;60181;-78
2022/12/12 11:03:33;;;;;;;30.00;21.70;;;;;;;-0.44;100.00;97784.77;106080;1295;60222;-79
2022/12/12 11:06:10;;;;;;;30.20;21.30;;;;;;;-0.53;100.00;97780.05;106081;1287;66571;-80
2022/12/12 11:08:36;;;;;;;28.90;19.60;;;;;;;-0.62;100.00;97784.29;106065;1289;60082;-79
2022/12/12 11:11:18;;;;;;;27.50;20.20;;;;;;;-0.69;100.00;97785.95;106096;1289;63897;-80
2022/12/12 11:13:50;;;;;;;25.80;19.40;;;;;;;-0.75;100.00;97784.29;106003;1292;59758;-80
2022/12/12 11:16:31;;;;;;;29.00;20.60;;;;;;;-0.80;100.00;97778.23;106087;1289;59638;-77
2022/12/12 11:19:05;;;;;;;24.90;17.30;;;;;;;-0.80;100.00;97778.56;106078;1288;67041;-78
2022/12/12 11:21:34;;;;;;;29.60;20.20;;;;;;;-0.82;100.00;97779.70;106075;1290;68004;-78
2022/12/12 11:24:09;;;;;;;26.40;18.00;;;;;;;-0.86;100.00;97780.20;106063;1287;65244;-78
2022/12/12 11:26:43;;;;;;;23.60;16.80;;;;;;;-0.95;100.00;97778.48;105937;1288;59732;-79
2022/12/12 11:29:26;;;;;;;27.90;19.70;;;;;;;-1.04;100.00;97778.14;106081;1289;59546;-78
2022/12/12 11:31:53;;;;;;;27.10;20.30;;;;;;;-1.08;100.00;97774.61;106071;1287;66530;-81
2022/12/12 11:34:21;;;;;;;29.80;20.60;;;;;;;-1.13;100.00;97772.20;106085;1287;60069;-80